Data for 06/03/2018

Time Sea-Level Adjusted Pressure Absolute Pressure Temperature Relative Humidity Dew Point   
(mb) (inHg) (mb) (inHg) (C) (F) (%) (C) (F)
00:05 1024 30.24 854 25.22 11.4 52.5 56 2.9 37.1
00:10 1024 30.24 854 25.22 11.4 52.5 55 2.8 37
00:15 1024 30.24 854 25.22 11.3 52.3 57 3.2 37.7
00:20 1024 30.24 854 25.22 11.1 52 57 3.1 37.6
00:25 1024 30.24 854 25.22 11 51.8 58 3 37.3
00:30 1024 30.24 853 25.19 11 51.7 58 3.1 37.5
00:35 1024 30.24 854 25.22 10.8 51.4 60 3.3 38
00:40 1024 30.24 854 25.22 10.5 51 61 3.3 38
00:45 1024 30.24 854 25.22 10.4 50.6 61 3.2 37.8
00:50 1024 30.24 854 25.22 10.4 50.8 60 3 37.3
00:55 1024 30.24 854 25.22 10.5 50.8 59 2.8 37
01:00 1024 30.24 854 25.22 10.7 51.3 58 2.9 37.2
01:05 1024 30.24 854 25.22 10.9 51.5 56 2.5 36.4
01:10 1024 30.24 853 25.19 10.9 51.6 57 2.9 37.2
01:15 1024 30.24 853 25.19 10.3 50.6 61 3.2 37.8
01:20 1024 30.24 854 25.22 9.8 49.6 61 2.7 36.9
01:25 1024 30.24 854 25.22 9.8 49.6 62 2.8 37
01:30 1024 30.24 854 25.22 9.7 49.4 60 2.4 36.3
01:35 1024 30.24 854 25.22 9.8 49.6 61 2.7 36.8
01:40 1024 30.24 854 25.22 9.6 49.2 61 2.5 36.4
01:45 1024 30.24 854 25.22 9.6 49.3 60 2.4 36.3
01:50 1024 30.24 853 25.19 9.9 49.9 59 2.3 36.2
01:55 1024 30.24 853 25.19 9.8 49.7 60 2.4 36.3
02:00 1024 30.24 853 25.19 9.8 49.7 59 2.4 36.2
02:05 1024 30.24 853 25.19 9.8 49.7 60 2.4 36.2
02:10 1024 30.24 853 25.19 9.8 49.7 59 2.3 36.2
02:15 1024 30.24 853 25.19 9.7 49.5 61 2.6 36.7
02:20 1024 30.24 853 25.19 9.2 48.5 63 2.5 36.5
02:25 1024 30.24 853 25.19 9.2 48.6 60 1.9 35.4
02:30 1024 30.24 853 25.19 9.3 48.8 59 1.8 35.2
02:35 1024 30.24 853 25.19 9.6 49.3 59 2 35.6
02:40 1024 30.24 853 25.19 9.4 48.9 58 1.6 35
02:45 1024 30.24 853 25.19 9.4 49 59 1.8 35.3
02:50 1024 30.24 853 25.19 9.3 48.7 60 2.1 35.7
02:55 1024 30.24 853 25.19 9.3 48.7 60 2 35.6
03:00 1024 30.24 853 25.19 9.3 48.7 60 1.9 35.4
03:05 1024 30.24 853 25.19 9.2 48.5 61 2.1 35.7
03:10 1024 30.24 853 25.19 8.9 48 63 2.2 36
03:15 1024 30.24 853 25.19 8.7 47.7 63 2.1 35.7
03:20 1024 30.24 853 25.19 8.7 47.6 62 1.9 35.4
03:25 1024 30.24 853 25.19 8.8 47.8 62 1.9 35.5
03:30 1024 30.24 853 25.19 8.9 48 61 1.8 35.2
03:35 1024 30.24 853 25.19 9.1 48.3 60 1.7 35.1
03:40 1024 30.24 853 25.19 9.2 48.5 59 1.7 35.1
03:45 1024 30.24 853 25.19 9.3 48.7 60 1.8 35.3
03:50 1024 30.24 853 25.19 9.1 48.3 61 1.9 35.4
03:55 1024 30.24 853 25.19 8.9 47.9 61 1.7 35.1
04:00 1024 30.24 853 25.19 9 48.2 59 1.5 34.7
04:05 1024 30.24 853 25.19 9.2 48.6 59 1.6 34.9
04:10 1024 30.24 853 25.19 9.2 48.5 60 1.7 35.1
04:15 1024 30.24 853 25.19 9.1 48.3 60 1.7 35
04:20 1024 30.24 853 25.19 9.2 48.5 60 1.8 35.2
04:25 1024 30.24 853 25.19 9.1 48.4 59 1.7 35
04:30 1024 30.24 853 25.19 9.2 48.5 59 1.7 35
04:35 1024 30.24 853 25.19 9.1 48.4 60 1.8 35.2
04:40 1024 30.24 853 25.19 9 48.3 60 1.8 35.2
04:45 1024 30.24 853 25.19 9.1 48.4 59 1.6 34.9
04:50 1024 30.24 853 25.19 9.2 48.6 59 1.8 35.2
04:55 1024 30.24 853 25.19 9.3 48.8 59 1.7 35
05:00 1024 30.24 853 25.19 9.4 48.8 60 1.9 35.5
05:05 1024 30.24 853 25.19 9.1 48.3 61 1.9 35.4
05:10 1024 30.24 853 25.19 8.8 47.8 62 2 35.6
05:15 1024 30.24 853 25.19 8.5 47.4 63 1.9 35.4
05:20 1024 30.24 853 25.19 8.5 47.3 63 1.9 35.4
05:25 1024 30.24 853 25.19 8.6 47.5 62 1.9 35.3
05:30 1024 30.24 853 25.19 8.7 47.7 62 1.8 35.2
05:35 1024 30.24 854 25.22 8.9 47.9 62 1.9 35.5
05:40 1024 30.24 853 25.19 8.8 47.8 62 2 35.6
05:45 1024 30.24 853 25.19 8.5 47.4 64 2.2 35.9
05:50 1024 30.24 853 25.19 8.3 46.9 65 2.1 35.7
05:55 1024 30.24 853 25.19 8.3 46.9 64 1.9 35.5
06:00 1024 30.24 853 25.19 8.6 47.4 63 2 35.5
06:05 1024 30.24 853 25.19 8.6 47.6 63 2.1 35.7
06:10 1024 30.24 853 25.19 8.7 47.6 62 2 35.5
06:15 1024 30.24 853 25.19 8.9 47.9 62 2 35.6
06:20 1024 30.24 853 25.19 8.9 48.1 62 2 35.7
06:25 1024 30.24 853 25.19 9 48.1 62 2.1 35.7
06:30 1024 30.24 853 25.19 9 48.1 63 2.3 36.1
06:35 1024 30.24 853 25.19 8.9 47.9 63 2.3 36.1
06:40 1024 30.24 853 25.19 8.9 48.1 63 2.2 36
06:45 1024 30.24 853 25.19 9 48.2 62 2.2 36
06:50 1024 30.24 853 25.19 9.3 48.7 62 2.4 36.3
06:55 1024 30.24 853 25.19 9.5 49.1 61 2.3 36.2
07:00 1024 30.24 853 25.19 9.8 49.6 60 2.5 36.5
07:05 1024 30.24 853 25.19 10 49.9 60 2.6 36.8
07:10 1024 30.24 853 25.19 10.3 50.5 58 2.5 36.4
07:15 1024 30.24 853 25.19 10.6 51 58 2.8 37
07:20 1024 30.24 853 25.19 10.8 51.5 58 3 37.5
07:25 1024 30.24 853 25.19 11.3 52.3 57 3.2 37.8
07:30 1024 30.24 853 25.19 11.7 53 56 3.2 37.8
07:35 1024 30.24 853 25.19 12.1 53.7 55 3.4 38.2
07:40 1024 30.24 853 25.19 12.3 54.1 55 3.6 38.6
07:45 1024 30.24 853 25.19 12.6 54.7 53 3.4 38.2
07:50 1024 30.24 853 25.19 13 55.3 50 3 37.3
07:55 1024 30.24 853 25.19 13.2 55.7 49 2.9 37.2
08:00 1024 30.24 853 25.19 13.4 56 49 3 37.5
08:05 1024 30.24 853 25.19 14.3 57.7 47 3 37.5
08:10 1024 30.24 853 25.19 14.8 58.6 46 3.5 38.2
08:15 1024 30.24 853 25.19 15.2 59.4 45 3.5 38.3
08:20 1024 30.24 853 25.19 15.3 59.5 47 4.1 39.3
08:25 1024 30.24 853 25.19 15 59.1 45 3.4 38.2
08:30 1024 30.24 853 25.19 15.5 59.9 46 4 39.2
08:35 1024 30.24 853 25.19 15.7 60.3 45 3.9 39
08:40 1024 30.24 853 25.19 16.2 61.2 42 3.3 37.9
08:45 1024 30.24 853 25.19 16.3 61.4 41 3.3 37.9
08:50 1024 30.24 853 25.19 16.6 61.8 42 3.6 38.5
08:55 1024 30.24 853 25.19 16.7 62 41 3.3 38
09:00 1024 30.24 853 25.19 17.1 62.7 39 3.3 37.9
09:05 1024 30.24 853 25.19 17.3 63.1 39 3.4 38.1
09:10 1024 30.24 853 25.19 17 62.7 39 3.1 37.6
09:15 1024 30.24 853 25.19 17.1 62.9 37 2.6 36.6
09:20 1024 30.24 853 25.19 16.8 62.3 40 3.1 37.6
09:25 1024 30.24 853 25.19 16.8 62.2 38 2.6 36.7
09:30 1024 30.24 853 25.19 17.8 64 35 2.4 36.2
09:35 1024 30.24 853 25.19 18.2 64.7 36 2.9 37.1
09:40 1024 30.24 853 25.19 18.7 65.6 34 2.5 36.5
09:45 1024 30.24 853 25.19 19 66.2 33 2.7 36.8
09:50 1024 30.24 853 25.19 18.2 64.7 34 2.1 35.8
09:55 1024 30.24 853 25.19 17.7 63.8 33 1.4 34.5
10:00 1024 30.24 853 25.19 18.3 64.9 34 2.2 36
10:05 1024 30.24 853 25.19 18.7 65.7 34 2.5 36.5
10:10 1024 30.24 853 25.19 19.3 66.8 33 2.6 36.7
10:15 1023 30.21 853 25.19 19.4 66.9 33 2.9 37.2
10:20 1023 30.21 853 25.19 19.1 66.5 33 2.4 36.4
10:25 1023 30.21 853 25.19 18.7 65.7 36 3.4 38.1
10:30 1023 30.21 853 25.19 18.9 66.1 34 2.8 37.1
10:35 1023 30.21 853 25.19 19.6 67.2 32 2.8 37
10:40 1023 30.21 852 25.16 19.7 67.4 34 3.5 38.3
10:45 1023 30.21 852 25.16 18.8 65.9 35 3 37.4
10:50 1023 30.21 852 25.16 19.1 66.3 37 4.4 39.8
10:55 1023 30.21 852 25.16 19.3 66.7 35 3.7 38.7
11:00 1023 30.21 852 25.16 19.9 67.9 35 4.4 39.9
11:05 1023 30.21 852 25.16 20.3 68.6 33 3.9 39
11:10 1023 30.21 852 25.16 20.3 68.6 35 4.5 40.1
11:15 1023 30.21 852 25.16 20.6 69.1 34 4.3 39.8
11:20 1023 30.21 852 25.16 20.9 69.6 34 4.7 40.5
11:25 1023 30.21 852 25.16 20.5 68.8 34 4.2 39.6
11:30 1023 30.21 852 25.16 20.6 69 37 5.4 41.8
11:35 1023 30.21 852 25.16 20.5 68.9 34 4.2 39.6
11:40 1023 30.21 852 25.16 19.9 67.8 36 4.5 40
11:45 1023 30.21 852 25.16 20 68.1 33 3.3 37.9
11:50 1023 30.21 852 25.16 21.5 70.7 31 4 39.2
11:55 1023 30.21 852 25.16 21.9 71.5 30 3.9 39
12:00 1022 30.18 852 25.16 21.7 71 31 4.2 39.5
12:05 1022 30.18 852 25.16 21.2 70.2 31 3.6 38.5
12:10 1022 30.18 851 25.13 22.2 72 27 2.4 36.3
12:15 1022 30.18 851 25.13 22.1 71.7 29 3.4 38
12:20 1022 30.18 851 25.13 22.3 72.2 28 3.3 38
12:25 1022 30.18 851 25.13 21.6 70.9 27 2.2 36
12:30 1022 30.18 851 25.13 22.9 73.3 27 3.1 37.6
12:35 1022 30.18 851 25.13 23.5 74.3 25 2.6 36.7
12:40 1022 30.18 851 25.13 22.7 72.8 24 1.2 34.2
12:45 1022 30.18 851 25.13 22 71.7 26 1.7 35.1
12:50 1022 30.18 851 25.13 22.3 72.2 23 0.7 33.2
12:55 1022 30.18 851 25.13 22.3 72.1 27 2.3 36.2
13:00 1022 30.18 851 25.13 22.2 71.9 24 1 33.8
13:05 1022 30.18 851 25.13 21.9 71.5 26 1.6 34.8
13:10 1022 30.18 851 25.13 22.6 72.7 23 0.8 33.5
13:15 1021 30.15 851 25.13 23.2 73.8 23 1 33.7
13:20 1021 30.15 851 25.13 23.3 73.9 23 1.1 34
13:25 1021 30.15 851 25.13 23.1 73.6 23 0.8 33.5
13:30 1021 30.15 850 25.1 23.2 73.7 22 0.5 32.9
13:35 1021 30.15 850 25.1 24.2 75.6 19 -0.9 30.4
13:40 1021 30.15 850 25.1 25.2 77.4 18 -0.2 31.6
13:45 1021 30.15 850 25.1 25.6 78 15 -2.7 27.2
13:50 1021 30.15 850 25.1 24.7 76.5 18 -1.3 29.7
13:55 1021 30.15 850 25.1 23.6 74.5 20 -0.7 30.7
14:00 1021 30.15 850 25.1 23.3 73.9 20 -0.5 31.1
14:05 1021 30.15 850 25.1 23.9 75.1 18 -1.5 29.3
14:10 1021 30.15 850 25.1 23 73.3 18 -2.6 27.4
14:15 1021 30.15 850 25.1 23.9 75.1 19 -0.8 30.6
14:20 1021 30.15 850 25.1 25.1 77.1 16 -2.7 27.2
14:25 1021 30.15 850 25.1 24.5 76.1 18 -1.1 30.1
14:30 1020 30.12 850 25.1 25 77.1 18 -0.8 30.6
14:35 1020 30.12 850 25.1 25.5 77.9 17 -1.1 30.1
14:40 1020 30.12 850 25.1 25.5 77.9 18 -0.5 31.1
14:45 1020 30.12 849 25.07 25.3 77.5 19 -0 32
14:50 1020 30.12 849 25.07 25.3 77.5 19 0.3 32.5
14:55 1020 30.12 849 25.07 24.7 76.5 20 0.5 32.9
15:00 1020 30.12 849 25.07 24.5 76.1 19 -0.2 31.6
15:05 1020 30.12 849 25.07 24.6 76.4 20 0.3 32.5
15:10 1020 30.12 849 25.07 24.3 75.8 21 1 33.8
15:15 1020 30.12 849 25.07 24.2 75.6 20 0.1 32.2
15:20 1020 30.12 849 25.07 25.2 77.4 18 -0.3 31.4
15:25 1020 30.12 849 25.07 24.8 76.7 21 1.2 34.2
15:30 1020 30.12 849 25.07 24.1 75.4 21 0.5 32.9
15:35 1020 30.12 849 25.07 24.2 75.5 21 0.4 32.7
15:40 1020 30.12 849 25.07 24.7 76.4 19 -0.6 31
15:45 1020 30.12 849 25.07 25 77 20 0.6 33.1
15:50 1020 30.12 849 25.07 24.7 76.4 20 0.5 32.8
15:55 1019 30.09 849 25.07 24.2 75.5 21 0.5 32.9
16:00 1019 30.09 849 25.07 24.6 76.2 20 0.1 32.2
16:05 1019 30.09 849 25.07 24.3 75.8 21 1.1 34
16:10 1019 30.09 848 25.04 24.9 76.8 20 1 33.7
16:15 1019 30.09 848 25.04 25.6 78.1 18 0.1 32.1
16:20 1019 30.09 848 25.04 25.8 78.4 20 1.2 34.2
16:25 1019 30.09 848 25.04 25.4 77.8 20 0.8 33.5
16:30 1019 30.09 848 25.04 25.8 78.4 19 0.9 33.5
16:35 1019 30.09 848 25.04 25.6 78.1 19 0.8 33.4
16:40 1019 30.09 848 25.04 25.3 77.5 20 1.2 34.1
16:45 1019 30.09 848 25.04 25.3 77.5 21 1.5 34.6
16:50 1019 30.09 848 25.04 25.9 78.7 20 1.5 34.6
16:55 1019 30.09 848 25.04 26.1 78.9 21 2.1 35.9
17:00 1019 30.09 848 25.04 25 77 21 1.4 34.5
17:05 1019 30.09 848 25.04 24.3 75.8 21 1 33.8
17:10 1019 30.09 848 25.04 25.4 77.7 21 1.7 35.1
17:15 1019 30.09 848 25.04 25.4 77.8 22 2.1 35.8
17:20 1019 30.09 848 25.04 25.2 77.3 21 1.8 35.3
17:25 1019 30.09 848 25.04 25.2 77.3 21 1.4 34.5
17:30 1018 30.06 848 25.04 25.2 77.4 22 2.1 35.7
17:35 1018 30.06 848 25.04 24.9 76.8 21 1.3 34.4
17:40 1018 30.06 848 25.04 24.5 76 21 1.3 34.3
17:45 1018 30.06 847 25.01 24.8 76.6 20 0.9 33.6
17:50 1018 30.06 847 25.01 25.2 77.3 22 1.9 35.4
17:55 1018 30.06 847 25.01 24.9 76.8 21 1.3 34.3
18:00 1018 30.06 847 25.01 24.9 76.9 21 1.3 34.3
18:05 1018 30.06 847 25.01 25.4 77.7 20 1.2 34.2
18:10 1018 30.06 847 25.01 25.3 77.5 20 1 33.8
18:15 1018 30.06 847 25.01 25.6 78.1 20 1.2 34.2
18:20 1018 30.06 847 25.01 24.9 76.8 21 1.1 33.9
18:25 1018 30.06 847 25.01 25 77 22 1.7 35.1
18:30 1018 30.06 847 25.01 25 77 21 1.2 34.1
18:35 1018 30.06 847 25.01 25.1 77.1 21 1.5 34.6
18:40 1018 30.06 847 25.01 25 76.9 21 1.6 34.8
18:45 1017 30.03 847 25.01 24.7 76.4 21 1.5 34.6
18:50 1017 30.03 847 25.01 25.3 77.5 20 1.3 34.3
18:55 1017 30.03 847 25.01 25.3 77.6 22 2 35.7
19:00 1017 30.03 847 25.01 25.1 77.1 21 1.5 34.8
19:05 1017 30.03 847 25.01 25.1 77.1 21 1.8 35.2
19:10 1017 30.03 847 25.01 24.8 76.6 22 1.8 35.2
19:15 1017 30.03 846 24.98 25.3 77.5 21 2 35.5
19:20 1017 30.03 846 24.98 25 76.9 25 3.8 38.8
19:25 1017 30.03 846 24.98 24.1 75.4 26 3.6 38.4
19:30 1017 30.03 846 24.98 23.9 75.1 28 4.4 39.9
19:35 1017 30.03 846 24.98 23.8 74.8 29 5 41
19:40 1017 30.03 846 24.98 23.5 74.3 30 5.4 41.6
19:45 1017 30.03 846 24.98 23.2 73.8 31 5.4 41.8
19:50 1017 30.03 846 24.98 23 73.4 32 5.5 42
19:55 1017 30.03 846 24.98 22.8 73.1 31 5.2 41.3
20:00 1017 30.03 846 24.98 22.6 72.6 31 5 41
20:05 1017 30.03 846 24.98 22.4 72.4 32 5 40.9
20:10 1017 30.03 846 24.98 22.3 72.1 32 5.1 41.2
20:15 1017 30.03 846 24.98 22.1 71.8 32 4.9 40.9
20:20 1017 30.03 846 24.98 22 71.6 33 5.1 41.2
20:25 1017 30.03 846 24.98 21.9 71.3 33 5.2 41.3
20:30 1017 30.03 846 24.98 21.7 71 34 5.1 41.2
20:35 1017 30.03 846 24.98 21.5 70.8 34 5.1 41.1
20:40 1017 30.03 846 24.98 21.4 70.6 35 5.4 41.7
20:45 1017 30.03 846 24.98 21.2 70.2 36 5.6 42
20:50 1017 30.03 846 24.98 21 69.8 36 5.7 42.2
20:55 1017 30.03 846 24.98 20.8 69.5 37 5.6 42.1
21:00 1017 30.03 846 24.98 20.7 69.3 37 5.7 42.3
21:05 1017 30.03 846 24.98 20.6 69 38 5.8 42.5
21:10 1017 30.03 846 24.98 20.5 68.8 38 5.8 42.4
21:15 1017 30.03 846 24.98 20.4 68.7 38 5.8 42.4
21:20 1017 30.03 846 24.98 20.3 68.5 39 5.9 42.7
21:25 1017 30.03 846 24.98 20 68.1 39 5.9 42.6
21:30 1017 30.03 846 24.98 19.9 67.8 40 5.9 42.6
21:35 1017 30.03 846 24.98 19.8 67.6 40 5.8 42.5
21:40 1017 30.03 846 24.98 19.6 67.3 40 5.9 42.6
21:45 1017 30.03 846 24.98 19.6 67.3 40 5.7 42.3
21:50 1017 30.03 846 24.98 19.7 67.4 39 5.6 42
21:55 1017 30.03 846 24.98 19.6 67.3 40 5.7 42.3
22:00 1017 30.03 846 24.98 19.5 67 40 5.7 42.3
22:05 1017 30.03 846 24.98 19.5 67 40 5.7 42.2
22:10 1017 30.03 846 24.98 19.5 67 40 5.7 42.2
22:15 1017 30.03 846 24.98 19.5 67.1 40 5.7 42.3
22:20 1017 30.03 847 25.01 19.5 67 41 5.9 42.5
22:25 1017 30.03 846 24.98 19.3 66.8 41 5.9 42.6
22:30 1017 30.03 847 25.01 19.3 66.7 41 5.8 42.5
22:35 1017 30.03 847 25.01 19.4 66.9 41 6 42.7
22:40 1017 30.03 846 24.98 19.4 66.9 41 6 42.9
22:45 1017 30.03 847 25.01 19.2 66.6 42 6.2 43.1
22:50 1017 30.03 846 24.98 19 66.2 43 6.4 43.6
22:55 1017 30.03 846 24.98 18.8 65.9 44 6.5 43.7
23:00 1017 30.03 846 24.98 18.8 65.9 44 6.4 43.6
23:05 1018 30.06 847 25.01 18.9 65.9 45 6.7 44
23:10 1018 30.06 847 25.01 18.5 65.2 43 5.9 42.6
23:15 1018 30.06 847 25.01 19.2 66.5 43 6.3 43.3
23:20 1018 30.06 847 25.01 19.2 66.5 43 6.3 43.3
23:25 1018 30.06 847 25.01 19.1 66.4 43 6.3 43.4
23:30 1017 30.03 847 25.01 19 66.2 44 6.5 43.7
23:35 1017 30.03 847 25.01 19 66.2 44 6.6 43.8
23:40 1018 30.06 847 25.01 18.9 66 46 7.1 44.8
23:45 1017 30.03 847 25.01 18.6 65.5 46 6.9 44.4
23:50 1017 30.03 847 25.01 18.2 64.8 48 7.1 44.7
23:55 1017 30.03 847 25.01 17.9 64.3 48 7 44.6
24:00 1017 30.03 846 24.98 17.7 63.8 50 7.1 44.8